Time;durP1;ratioP1;P1;durP2;ratioP2;P2;SDS_P1;SDS_P2;PMS_P1;PMS_P2;Temp;Humidity;BMP_temperature;BMP_pressure;BME280_temperature;BME280_humidity;BME280_pressure;Samples;Min_cycle;Max_cycle;Signal;HPM_P1;HPM_P2
2021/08/04 00:01:34;;;;;;;3.10;2.80;;;15.20;99.90;;;;;;5041313;28;20304;-66
2021/08/04 00:04:01;;;;;;;2.75;2.42;;;15.10;99.90;;;;;;5048395;28;20739;-66
2021/08/04 00:06:29;;;;;;;3.10;2.80;;;15.10;99.90;;;;;;5042618;28;20198;-65
2021/08/04 00:08:58;;;;;;;2.78;2.67;;;15.10;99.90;;;;;;5049484;28;20218;-66
2021/08/04 00:11:25;;;;;;;4.05;2.70;;;15.00;99.90;;;;;;5050098;28;20202;-66
2021/08/04 00:13:52;;;;;;;3.20;3.00;;;15.10;99.90;;;;;;5049958;28;20281;-66
2021/08/04 00:16:19;;;;;;;2.72;2.53;;;15.00;99.90;;;;;;5048150;28;20564;-66
2021/08/04 00:18:46;;;;;;;3.42;3.13;;;14.90;99.90;;;;;;5050587;28;20209;-66
2021/08/04 00:21:13;;;;;;;3.05;2.83;;;15.00;99.90;;;;;;5044904;28;20313;-66
2021/08/04 00:23:41;;;;;;;2.83;2.63;;;15.10;99.90;;;;;;5044187;28;20210;-66
2021/08/04 00:26:08;;;;;;;3.78;2.83;;;15.00;99.90;;;;;;5038617;28;20284;-66
2021/08/04 00:28:35;;;;;;;6.38;3.17;;;15.00;99.90;;;;;;5050186;28;20615;-66
2021/08/04 00:31:02;;;;;;;3.30;3.00;;;14.90;99.90;;;;;;5042299;28;20203;-66
2021/08/04 00:33:28;;;;;;;3.20;2.97;;;14.90;99.90;;;;;;5050233;28;20194;-66
2021/08/04 00:35:55;;;;;;;3.80;3.15;;;15.00;99.90;;;;;;5046145;28;20328;-66
2021/08/04 00:38:22;;;;;;;2.60;2.40;;;15.00;99.90;;;;;;5044936;28;20214;-66
2021/08/04 00:40:50;;;;;;;2.80;2.60;;;15.00;99.90;;;;;;5047090;28;20280;-66
2021/08/04 00:43:17;;;;;;;2.65;2.45;;;15.10;99.90;;;;;;5047849;28;20198;-66
2021/08/04 00:45:44;;;;;;;2.90;2.70;;;15.00;99.90;;;;;;5045296;28;20663;-66
2021/08/04 00:48:11;;;;;;;3.15;2.95;;;15.10;99.90;;;;;;5050481;28;20669;-66
2021/08/04 00:50:38;;;;;;;3.38;3.08;;;15.00;99.90;;;;;;5047429;28;20292;-66
2021/08/04 00:53:22;;;;;;;2.55;2.35;;;15.20;99.90;;;;;;5049616;28;20274;-66
2021/08/04 00:55:50;;;;;;;4.18;2.60;;;15.10;99.90;;;;;;5045557;28;20233;-66
2021/08/04 00:58:19;;;;;;;3.33;3.10;;;15.20;99.90;;;;;;5049566;28;20302;-66
2021/08/04 01:00:50;;;;;;;3.53;2.83;;;15.10;99.90;;;;;;5048190;28;20296;-66
2021/08/04 01:03:19;;;;;;;2.70;2.50;;;15.10;99.90;;;;;;5046289;28;20201;-66
2021/08/04 01:05:53;;;;;;;3.90;2.90;;;15.10;99.90;;;;;;5049049;28;20586;-66
2021/08/04 01:08:27;;;;;;;3.20;3.00;;;15.10;99.90;;;;;;5047417;28;20241;-66
2021/08/04 01:10:57;;;;;;;3.05;2.85;;;15.00;99.90;;;;;;5041473;28;20211;-66
2021/08/04 01:13:28;;;;;;;2.85;2.65;;;15.10;99.90;;;;;;5042351;28;20212;-66
2021/08/04 01:16:03;;;;;;;3.03;2.60;;;15.10;99.90;;;;;;5048876;28;20205;-66
2021/08/04 01:18:39;;;;;;;2.60;2.42;;;15.10;99.90;;;;;;5047582;28;20197;-66
2021/08/04 01:21:09;;;;;;;2.78;2.60;;;15.20;99.90;;;;;;5043598;28;20204;-66
2021/08/04 01:23:44;;;;;;;2.95;2.75;;;15.20;99.90;;;;;;5047537;28;20210;-66
2021/08/04 01:26:36;;;;;;;2.78;2.58;;;15.10;99.90;;;;;;5037915;28;20280;-66
2021/08/04 01:29:07;;;;;;;2.47;2.38;;;15.00;99.90;;;;;;5046671;28;20711;-66
2021/08/04 01:31:37;;;;;;;3.45;2.70;;;15.00;99.90;;;;;;5041182;28;20211;-66
2021/08/04 01:34:04;;;;;;;2.70;2.50;;;14.90;99.90;;;;;;5041568;28;20237;-66
2021/08/04 01:36:31;;;;;;;3.30;3.00;;;14.90;99.90;;;;;;5047572;28;20297;-66
2021/08/04 01:39:02;;;;;;;3.10;2.75;;;14.90;99.90;;;;;;5047824;28;20300;-66
2021/08/04 01:41:33;;;;;;;3.13;2.88;;;14.80;99.90;;;;;;5046792;28;20212;-66
2021/08/04 01:44:00;;;;;;;3.80;3.50;;;14.90;99.90;;;;;;5039243;28;20209;-66
2021/08/04 01:46:29;;;;;;;3.90;3.15;;;14.80;99.90;;;;;;5037590;28;20687;-66
2021/08/04 01:48:59;;;;;;;2.92;2.72;;;14.80;99.90;;;;;;5046862;28;20324;-66
2021/08/04 01:51:27;;;;;;;3.03;2.83;;;14.80;99.90;;;;;;5047591;28;20202;-66
2021/08/04 01:53:54;;;;;;;3.40;3.10;;;14.80;99.90;;;;;;5049191;28;20201;-66
2021/08/04 01:56:21;;;;;;;3.47;3.17;;;14.70;99.90;;;;;;5045360;28;20208;-66
2021/08/04 01:58:48;;;;;;;2.70;2.50;;;14.80;99.90;;;;;;5036765;28;20198;-66
2021/08/04 02:01:15;;;;;;;3.00;2.80;;;14.80;99.90;;;;;;5044268;28;20719;-66
2021/08/04 02:03:43;;;;;;;3.25;3.05;;;15.00;99.90;;;;;;5048231;28;20209;-66
2021/08/04 02:06:16;;;;;;;2.60;2.40;;;15.00;99.90;;;;;;5048314;28;20296;-66
2021/08/04 02:08:57;;;;;;;3.05;2.83;;;15.00;99.90;;;;;;5039034;28;20225;-66
2021/08/04 02:11:30;;;;;;;2.70;2.50;;;15.00;99.90;;;;;;5038232;28;20294;-66
2021/08/04 02:14:00;;;;;;;3.00;2.80;;;15.00;99.90;;;;;;5040241;28;20197;-66
2021/08/04 02:16:34;;;;;;;3.30;3.00;;;15.00;99.90;;;;;;5042934;28;20206;-66
2021/08/04 02:19:12;;;;;;;3.50;3.22;;;14.80;99.90;;;;;;5043081;28;20223;-66
2021/08/04 02:21:43;;;;;;;3.35;2.70;;;14.90;99.90;;;;;;5042302;28;20212;-66
2021/08/04 02:24:11;;;;;;;3.25;2.83;;;14.90;99.90;;;;;;5048962;28;20292;-66
2021/08/04 02:26:40;;;;;;;3.55;3.20;;;14.90;99.90;;;;;;5045271;28;20295;-66
2021/08/04 02:29:08;;;;;;;3.08;2.88;;;14.90;99.90;;;;;;5046180;28;20209;-66
2021/08/04 02:31:36;;;;;;;3.13;2.83;;;14.90;99.90;;;;;;5042343;28;20216;-66
2021/08/04 02:34:05;;;;;;;3.40;3.17;;;14.80;99.90;;;;;;5037382;28;20747;-66
2021/08/04 02:36:32;;;;;;;2.90;2.70;;;14.80;99.90;;;;;;5046268;28;20202;-66
2021/08/04 02:39:01;;;;;;;3.33;3.03;;;14.80;99.90;;;;;;5045547;28;20198;-66
2021/08/04 02:41:28;;;;;;;2.78;2.58;;;14.80;99.90;;;;;;5051378;28;20197;-66
2021/08/04 02:43:55;;;;;;;3.58;3.28;;;14.80;99.90;;;;;;5052630;28;20224;-66
2021/08/04 02:46:24;;;;;;;2.70;2.50;;;14.70;99.90;;;;;;5045681;28;20569;-65
2021/08/04 02:48:50;;;;;;;3.38;3.05;;;14.70;99.90;;;;;;5048813;28;20233;-66
2021/08/04 02:51:23;;;;;;;3.20;3.00;;;14.60;99.90;;;;;;5051079;28;20281;-66
2021/08/04 02:53:55;;;;;;;4.97;3.35;;;14.70;99.90;;;;;;5055102;28;20672;-66
2021/08/04 02:56:22;;;;;;;3.20;2.90;;;14.80;99.90;;;;;;5047754;28;20657;-66
2021/08/04 02:58:48;;;;;;;3.00;2.80;;;14.80;99.90;;;;;;5042975;28;20659;-66
2021/08/04 03:01:17;;;;;;;3.30;3.03;;;14.70;99.90;;;;;;5046125;28;20667;-66
2021/08/04 03:03:44;;;;;;;3.00;2.70;;;14.80;99.90;;;;;;5043333;28;20568;-66
2021/08/04 03:06:11;;;;;;;3.28;3.08;;;14.80;99.90;;;;;;5043926;28;20671;-66
2021/08/04 03:08:39;;;;;;;3.10;2.90;;;14.70;99.90;;;;;;5031722;28;20203;-66
2021/08/04 03:11:07;;;;;;;3.55;3.25;;;14.80;99.90;;;;;;5040834;28;20678;-66
2021/08/04 03:13:34;;;;;;;3.10;2.90;;;14.80;99.90;;;;;;5051042;28;20227;-66
2021/08/04 03:16:01;;;;;;;3.38;3.17;;;14.90;99.90;;;;;;5050794;28;20206;-66
2021/08/04 03:18:28;;;;;;;3.17;2.97;;;14.80;99.90;;;;;;5039817;28;20203;-66
2021/08/04 03:20:55;;;;;;;3.30;3.00;;;14.70;99.90;;;;;;5051987;28;20203;-66
2021/08/04 03:23:22;;;;;;;3.45;3.15;;;14.50;99.90;;;;;;5046567;28;20289;-66
2021/08/04 03:25:52;;;;;;;3.55;3.25;;;14.50;99.90;;;;;;5044027;28;20208;-66
2021/08/04 03:28:19;;;;;;;3.28;3.08;;;14.40;99.90;;;;;;5036671;28;20222;-66
2021/08/04 03:30:46;;;;;;;3.00;2.80;;;14.40;99.90;;;;;;5049327;28;20237;-66
2021/08/04 03:33:13;;;;;;;3.10;2.90;;;14.40;99.90;;;;;;5038644;28;20292;-66
2021/08/04 03:35:40;;;;;;;3.28;3.08;;;14.40;99.90;;;;;;5040511;28;20229;-66
2021/08/04 03:38:07;;;;;;;5.18;3.80;;;14.50;99.90;;;;;;5040866;28;20693;-66
2021/08/04 03:40:34;;;;;;;3.42;3.13;;;14.60;99.90;;;;;;5048232;28;20205;-66
2021/08/04 03:43:02;;;;;;;3.33;3.03;;;14.80;99.90;;;;;;5049871;28;20867;-66
2021/08/04 03:45:29;;;;;;;3.13;2.92;;;14.70;99.90;;;;;;5049334;28;20198;-66
2021/08/04 03:47:56;;;;;;;3.33;3.03;;;14.80;99.90;;;;;;5046889;28;20328;-66
2021/08/04 03:50:22;;;;;;;3.03;2.83;;;14.70;99.90;;;;;;5050618;28;20240;-66
2021/08/04 03:52:49;;;;;;;3.38;3.17;;;14.50;99.90;;;;;;5052243;28;20193;-66
2021/08/04 03:55:16;;;;;;;3.45;3.25;;;14.40;99.90;;;;;;5048905;28;20437;-66
2021/08/04 03:57:43;;;;;;;3.58;3.38;;;14.40;99.90;;;;;;5040864;28;20214;-66
2021/08/04 04:00:12;;;;;;;3.80;3.17;;;14.30;99.90;;;;;;5051272;28;20292;-66
2021/08/04 04:02:39;;;;;;;3.60;3.30;;;14.20;99.90;;;;;;5047692;28;20288;-66
2021/08/04 04:05:07;;;;;;;4.95;3.60;;;14.20;99.90;;;;;;5049515;28;20205;-66
2021/08/04 04:07:35;;;;;;;3.10;2.83;;;14.20;99.90;;;;;;5041998;28;20290;-66
2021/08/04 04:10:02;;;;;;;3.95;3.65;;;14.20;99.90;;;;;;5040619;28;21130;-66
2021/08/04 04:12:29;;;;;;;3.67;3.35;;;14.20;99.90;;;;;;5050471;28;20287;-66
2021/08/04 04:14:56;;;;;;;3.80;3.42;;;14.20;99.90;;;;;;5047536;28;20553;-66
2021/08/04 04:17:24;;;;;;;3.85;3.50;;;14.30;99.90;;;;;;5043164;28;20209;-66
2021/08/04 04:19:51;;;;;;;3.45;3.15;;;14.30;99.90;;;;;;5044933;28;20633;-66
2021/08/04 04:22:19;;;;;;;3.05;2.83;;;14.20;99.90;;;;;;5047680;28;20198;-66
2021/08/04 04:24:46;;;;;;;4.30;3.90;;;14.20;99.90;;;;;;5049092;28;20297;-66
2021/08/04 04:27:12;;;;;;;3.92;3.63;;;14.10;99.90;;;;;;5046856;28;20289;-66
2021/08/04 04:29:39;;;;;;;3.35;3.05;;;14.20;99.90;;;;;;5043820;28;20325;-66
2021/08/04 04:32:07;;;;;;;3.65;3.45;;;14.10;99.90;;;;;;5046665;28;20300;-66
2021/08/04 04:34:36;;;;;;;6.15;3.40;;;14.20;99.90;;;;;;5049506;28;20198;-66
2021/08/04 04:37:03;;;;;;;3.45;3.15;;;14.30;99.90;;;;;;5044544;28;20867;-66
2021/08/04 04:39:30;;;;;;;4.35;3.65;;;14.40;99.90;;;;;;5039707;28;20292;-66
2021/08/04 04:41:57;;;;;;;3.90;3.50;;;14.40;99.90;;;;;;5048473;28;20209;-66
2021/08/04 04:44:24;;;;;;;4.10;3.70;;;14.70;99.90;;;;;;5049817;28;20210;-66
2021/08/04 04:46:51;;;;;;;4.63;3.20;;;14.70;99.90;;;;;;5047918;28;20336;-66
2021/08/04 04:49:18;;;;;;;3.38;3.05;;;14.70;99.90;;;;;;5038451;28;20324;-66
2021/08/04 04:51:46;;;;;;;3.80;3.50;;;14.80;99.90;;;;;;5030202;28;20699;-66
2021/08/04 04:54:13;;;;;;;5.75;3.30;;;14.80;99.90;;;;;;5049394;28;20292;-66
2021/08/04 04:56:40;;;;;;;3.20;2.97;;;14.80;99.90;;;;;;5048248;28;20252;-66
2021/08/04 04:59:07;;;;;;;4.35;3.70;;;15.00;99.90;;;;;;5040383;28;20209;-66
2021/08/04 05:01:34;;;;;;;3.58;3.20;;;15.10;99.90;;;;;;5047770;28;20287;-66
2021/08/04 05:04:00;;;;;;;4.55;3.92;;;15.20;99.90;;;;;;5046484;28;20206;-66
2021/08/04 05:06:27;;;;;;;3.42;3.20;;;15.30;99.90;;;;;;5043513;28;20292;-66
2021/08/04 05:08:55;;;;;;;3.70;3.40;;;15.40;99.90;;;;;;5043690;28;20201;-66
2021/08/04 05:11:22;;;;;;;3.55;3.05;;;15.50;99.90;;;;;;5038821;28;20237;-66
2021/08/04 05:13:49;;;;;;;3.53;3.22;;;15.50;99.90;;;;;;5045711;28;20207;-66
2021/08/04 05:16:16;;;;;;;4.28;3.35;;;15.40;99.90;;;;;;5045330;28;20202;-66
2021/08/04 05:18:43;;;;;;;4.00;3.20;;;15.70;99.90;;;;;;5039070;28;20313;-66
2021/08/04 05:21:09;;;;;;;3.80;3.50;;;15.90;99.90;;;;;;5046198;28;20202;-66
2021/08/04 05:23:36;;;;;;;3.33;3.10;;;16.10;99.90;;;;;;5043001;28;20305;-66
2021/08/04 05:26:05;;;;;;;4.68;3.28;;;16.20;99.90;;;;;;5047598;28;20289;-66
2021/08/04 05:28:32;;;;;;;3.60;3.30;;;16.40;99.90;;;;;;5043433;28;20767;-66
2021/08/04 05:30:59;;;;;;;3.08;2.88;;;16.70;99.90;;;;;;5041001;28;20639;-66
2021/08/04 05:33:25;;;;;;;4.15;3.20;;;16.80;99.90;;;;;;5040469;28;20968;-66
2021/08/04 05:35:52;;;;;;;3.30;3.10;;;16.90;99.90;;;;;;5047354;28;20205;-67
2021/08/04 05:38:19;;;;;;;4.05;3.30;;;17.00;99.90;;;;;;5037694;28;20204;-67
2021/08/04 05:40:46;;;;;;;3.10;2.90;;;17.10;99.90;;;;;;5039349;28;20256;-67
2021/08/04 05:43:14;;;;;;;3.22;3.03;;;17.20;99.90;;;;;;5047419;28;20304;-67
2021/08/04 05:45:41;;;;;;;3.35;3.10;;;17.30;99.90;;;;;;5040800;28;20735;-67
2021/08/04 05:48:08;;;;;;;3.40;3.08;;;17.40;99.90;;;;;;5046708;28;20693;-67
2021/08/04 05:50:35;;;;;;;3.53;2.83;;;17.60;99.90;;;;;;5047998;28;20239;-69
2021/08/04 05:53:02;;;;;;;3.87;3.13;;;17.60;99.90;;;;;;5044456;28;20685;-67
2021/08/04 05:55:29;;;;;;;3.03;2.73;;;18.20;99.90;;;;;;5034322;28;21015;-67
2021/08/04 05:57:56;;;;;;;4.07;2.80;;;18.30;99.90;;;;;;5042029;28;20652;-67
2021/08/04 06:00:27;;;;;;;2.97;2.70;;;18.50;99.90;;;;;;5046068;28;20625;-67
2021/08/04 06:02:54;;;;;;;2.83;2.63;;;18.60;99.90;;;;;;5046454;28;20651;-67
2021/08/04 06:05:21;;;;;;;2.50;2.30;;;19.30;99.90;;;;;;5046399;28;21490;-68
2021/08/04 06:07:48;;;;;;;3.80;3.40;;;19.70;99.90;;;;;;5047173;28;20659;-68
2021/08/04 06:10:14;;;;;;;2.17;2.07;;;20.20;99.90;;;;;;5037223;28;21336;-67
2021/08/04 06:12:41;;;;;;;3.00;2.80;;;21.30;98.50;;;;;;5043093;28;20720;-68
2021/08/04 06:15:09;;;;;;;2.80;2.60;;;22.70;95.50;;;;;;5038725;28;21201;-67
2021/08/04 06:17:38;;;;;;;2.73;2.53;;;23.10;93.80;;;;;;5046470;28;20731;-67
2021/08/04 06:20:06;;;;;;;1.97;1.80;;;22.50;94.30;;;;;;5043765;28;20639;-67
2021/08/04 06:22:33;;;;;;;2.57;2.37;;;21.60;95.50;;;;;;5038508;28;20636;-67
2021/08/04 06:25:00;;;;;;;4.50;2.50;;;21.30;95.60;;;;;;5035191;28;20644;-68
2021/08/04 06:27:27;;;;;;;2.40;2.20;;;21.00;96.20;;;;;;5036924;28;20744;-68
2021/08/04 06:29:53;;;;;;;2.60;2.40;;;20.50;95.80;;;;;;5039547;28;20679;-67
2021/08/04 06:32:20;;;;;;;3.10;2.80;;;20.40;97.10;;;;;;5040965;28;20690;-67
2021/08/04 06:34:48;;;;;;;3.23;2.00;;;20.20;97.00;;;;;;5030267;28;20702;-67
2021/08/04 06:37:16;;;;;;;2.73;2.53;;;19.90;97.50;;;;;;5040466;28;20661;-67
2021/08/04 06:39:43;;;;;;;3.00;2.80;;;20.30;96.60;;;;;;5041525;28;21217;-67
2021/08/04 06:42:09;;;;;;;4.90;2.60;;;20.30;95.80;;;;;;5037039;28;20620;-67
2021/08/04 06:44:36;;;;;;;3.00;2.63;;;20.30;96.90;;;;;;5036397;28;20724;-68
2021/08/04 06:47:04;;;;;;;2.60;2.40;;;20.70;96.30;;;;;;5034040;28;20736;-67
2021/08/04 06:49:31;;;;;;;3.40;2.77;;;20.40;96.50;;;;;;5037583;28;21219;-67
2021/08/04 06:51:59;;;;;;;2.70;2.50;;;20.20;96.40;;;;;;5033819;28;20707;-67
2021/08/04 06:54:26;;;;;;;2.80;2.60;;;19.80;96.70;;;;;;5040641;28;20719;-67
2021/08/04 06:56:53;;;;;;;3.20;2.50;;;19.70;97.00;;;;;;5042680;28;20758;-67
2021/08/04 06:59:20;;;;;;;2.90;2.70;;;19.60;97.50;;;;;;5038819;28;20632;-67
2021/08/04 07:01:47;;;;;;;2.93;2.77;;;19.20;97.60;;;;;;5035439;28;20660;-67
2021/08/04 07:04:15;;;;;;;3.40;2.90;;;19.10;98.30;;;;;;5038566;28;20657;-67
2021/08/04 07:06:52;;;;;;;2.33;2.23;;;19.10;98.40;;;;;;5035462;28;21241;-67
2021/08/04 07:09:20;;;;;;;2.77;2.57;;;19.20;98.70;;;;;;5037725;28;20637;-67
2021/08/04 07:11:47;;;;;;;3.37;2.80;;;19.30;98.80;;;;;;5040612;28;20686;-67
2021/08/04 07:14:15;;;;;;;3.10;2.40;;;19.40;98.30;;;;;;5044687;28;20633;-68
2021/08/04 07:16:42;;;;;;;3.20;2.90;;;19.50;98.40;;;;;;5039736;28;20694;-67
2021/08/04 07:19:10;;;;;;;2.97;2.53;;;20.00;98.70;;;;;;5043058;28;20726;-67
2021/08/04 07:21:37;;;;;;;2.70;2.50;;;20.70;97.50;;;;;;5042836;28;21047;-67
2021/08/04 07:24:07;;;;;;;2.77;2.63;;;22.30;95.90;;;;;;5037211;28;20640;-67
2021/08/04 07:26:36;;;;;;;2.77;2.50;;;23.30;93.60;;;;;;5041958;28;20718;-68
2021/08/04 07:29:04;;;;;;;4.90;2.20;;;23.30;92.90;;;;;;5036375;28;20618;-67
2021/08/04 07:31:31;;;;;;;2.47;2.30;;;23.30;92.10;;;;;;5041438;28;20676;-67
2021/08/04 07:33:58;;;;;;;2.50;2.30;;;23.30;91.60;;;;;;5037955;28;21427;-67
2021/08/04 07:36:25;;;;;;;2.33;2.23;;;23.10;91.90;;;;;;5041820;28;21194;-67
2021/08/04 07:38:52;;;;;;;2.50;2.40;;;22.40;92.60;;;;;;5035293;28;20651;-67
2021/08/04 07:41:19;;;;;;;2.60;2.50;;;21.90;93.50;;;;;;5040730;28;20745;-67
2021/08/04 07:43:49;;;;;;;2.17;2.00;;;22.20;93.50;;;;;;5043065;28;21321;-68
2021/08/04 07:46:17;;;;;;;3.27;2.33;;;23.80;91.70;;;;;;5038832;28;20635;-68
2021/08/04 07:48:44;;;;;;;2.13;1.90;;;25.80;87.10;;;;;;5036868;28;20649;-68
2021/08/04 07:51:11;;;;;;;2.17;2.07;;;26.70;80.80;;;;;;5043846;28;20784;-68
2021/08/04 07:53:38;;;;;;;2.30;2.10;;;26.20;82.50;;;;;;5049942;28;20723;-68
2021/08/04 07:56:05;;;;;;;2.50;2.30;;;26.10;81.90;;;;;;5045728;28;21444;-68
2021/08/04 07:58:32;;;;;;;2.00;1.97;;;26.10;81.00;;;;;;5046932;28;20621;-68
2021/08/04 08:01:00;;;;;;;2.33;2.13;;;25.80;79.50;;;;;;5044806;28;20632;-68
2021/08/04 08:03:27;;;;;;;2.40;2.20;;;25.30;80.60;;;;;;5040339;28;20987;-68
2021/08/04 08:05:54;;;;;;;2.30;1.70;;;24.40;83.10;;;;;;5042961;28;20627;-68
2021/08/04 08:08:21;;;;;;;2.27;2.07;;;24.80;81.90;;;;;;5040888;28;20638;-68
2021/08/04 08:10:49;;;;;;;2.20;2.10;;;24.20;83.60;;;;;;5046743;28;20749;-68
2021/08/04 08:13:17;;;;;;;2.43;2.33;;;24.00;82.80;;;;;;5045561;28;20723;-67
2021/08/04 08:15:44;;;;;;;4.13;2.30;;;23.90;80.70;;;;;;5045929;28;21202;-67
2021/08/04 08:18:13;;;;;;;2.33;2.23;;;23.70;81.10;;;;;;5045752;28;21217;-67
2021/08/04 08:20:41;;;;;;;1.80;1.70;;;23.30;85.60;;;;;;5042527;28;20643;-67
2021/08/04 08:23:09;;;;;;;1.97;1.87;;;23.40;86.70;;;;;;5045435;28;20666;-67
2021/08/04 08:25:40;;;;;;;1.93;1.83;;;23.10;85.10;;;;;;5036861;28;20616;-68
2021/08/04 08:28:07;;;;;;;2.10;2.00;;;23.10;82.80;;;;;;5044687;28;20644;-67
2021/08/04 08:30:37;;;;;;;2.30;2.10;;;22.60;86.30;;;;;;5033382;28;20657;-67
2021/08/04 08:33:04;;;;;;;2.00;1.90;;;22.90;83.40;;;;;;5048452;28;20664;-67
2021/08/04 08:35:32;;;;;;;2.50;2.30;;;22.60;83.80;;;;;;5038377;28;20724;-67
2021/08/04 08:37:59;;;;;;;2.30;2.10;;;22.00;87.50;;;;;;5046348;28;20660;-68
2021/08/04 08:40:27;;;;;;;2.40;2.20;;;21.60;90.10;;;;;;5045731;28;20727;-67
2021/08/04 08:42:54;;;;;;;2.10;2.00;;;21.80;86.60;;;;;;5042684;28;20669;-67
2021/08/04 08:45:21;;;;;;;2.40;2.20;;;21.90;87.50;;;;;;5034706;28;20633;-68
2021/08/04 08:47:49;;;;;;;2.00;1.90;;;22.00;87.00;;;;;;5044220;28;20739;-68
2021/08/04 08:50:21;;;;;;;2.50;2.30;;;21.40;88.20;;;;;;5038820;28;20629;-67
2021/08/04 08:52:50;;;;;;;2.40;2.17;;;21.70;85.90;;;;;;5037328;28;20633;-67
2021/08/04 08:55:16;;;;;;;2.00;1.90;;;21.30;88.40;;;;;;5042280;28;20651;-67
2021/08/04 08:57:43;;;;;;;2.50;2.20;;;21.30;86.60;;;;;;5039758;28;20736;-67
2021/08/04 09:00:11;;;;;;;2.83;2.60;;;21.10;90.80;;;;;;5044884;28;20628;-67
2021/08/04 09:02:42;;;;;;;2.30;2.10;;;21.00;92.10;;;;;;5044112;28;20639;-67
2021/08/04 09:05:11;;;;;;;2.33;2.07;;;21.80;86.90;;;;;;5035491;28;21034;-67
2021/08/04 09:07:39;;;;;;;2.30;2.20;;;22.10;87.20;;;;;;5034809;28;20715;-67
2021/08/04 09:10:22;;;;;;;2.60;2.30;;;22.40;87.70;;;;;;5038115;28;21303;-67
2021/08/04 09:12:50;;;;;;;2.37;2.17;;;22.60;84.80;;;;;;5031141;28;20629;-67
2021/08/04 09:15:31;;;;;;;2.43;2.27;;;23.10;84.70;;;;;;5033965;28;20628;-67
2021/08/04 09:18:07;;;;;;;2.33;2.23;;;23.80;83.90;;;;;;5041597;28;21323;-66
2021/08/04 09:20:48;;;;;;;3.00;2.70;;;24.60;82.70;;;;;;5031819;28;20634;-67
2021/08/04 09:23:16;;;;;;;2.23;2.13;;;24.60;81.60;;;;;;5043239;28;20651;-67
2021/08/04 09:26:03;;;;;;;2.90;2.70;;;24.30;80.60;;;;;;5042691;28;20641;-67
2021/08/04 09:28:31;;;;;;;2.30;2.10;;;24.20;81.50;;;;;;5038215;28;20618;-67
2021/08/04 09:31:04;;;;;;;2.43;2.23;;;24.30;82.00;;;;;;5036906;28;20742;-67
2021/08/04 09:33:37;;;;;;;2.10;2.00;;;24.60;80.60;;;;;;5042629;28;20591;-67
2021/08/04 09:36:04;;;;;;;2.10;2.00;;;25.10;79.20;;;;;;5039593;28;20629;-67
2021/08/04 09:38:32;;;;;;;2.70;2.50;;;25.00;78.20;;;;;;5036905;28;20982;-68
2021/08/04 09:41:15;;;;;;;2.60;2.40;;;24.30;79.80;;;;;;5033956;28;20628;-67
2021/08/04 09:43:48;;;;;;;2.40;2.20;;;23.70;81.80;;;;;;5043434;28;20679;-67
2021/08/04 09:46:25;;;;;;;2.30;2.20;;;24.60;78.60;;;;;;5040799;28;20960;-67
2021/08/04 09:48:52;;;;;;;2.23;2.13;;;24.50;80.60;;;;;;5040862;28;20712;-67
2021/08/04 09:51:21;;;;;;;2.03;1.93;;;24.80;78.70;;;;;;5036511;28;20692;-67
2021/08/04 09:53:51;;;;;;;2.07;1.97;;;24.10;80.00;;;;;;5038956;28;20642;-67
2021/08/04 09:56:21;;;;;;;2.23;2.13;;;24.40;79.50;;;;;;5044124;28;20599;-67
2021/08/04 09:58:50;;;;;;;2.20;2.10;;;23.50;79.80;;;;;;5045838;28;20640;-67
2021/08/04 10:01:20;;;;;;;2.20;2.10;;;22.90;83.00;;;;;;5037688;28;20659;-67
2021/08/04 10:04:02;;;;;;;2.10;2.00;;;22.80;82.70;;;;;;5038882;28;20940;-67
2021/08/04 10:09:59;;;;;;;2.50;2.07;;;21.90;84.40;;;;;;5050149;28;20551;-67
2021/08/04 10:12:27;;;;;;;2.27;2.07;;;21.50;83.80;;;;;;5047214;28;20732;-67
2021/08/04 10:14:54;;;;;;;2.70;2.50;;;21.60;86.20;;;;;;5039743;28;20696;-67
2021/08/04 10:17:21;;;;;;;2.30;2.20;;;21.70;84.10;;;;;;5036375;28;20620;-68
2021/08/04 10:19:49;;;;;;;2.10;2.00;;;21.80;86.20;;;;;;5041109;28;20635;-67
2021/08/04 10:22:16;;;;;;;2.37;2.20;;;21.80;85.40;;;;;;5039823;28;20630;-67
2021/08/04 10:24:45;;;;;;;2.93;2.23;;;21.70;85.60;;;;;;5034946;28;20632;-68
2021/08/04 10:27:12;;;;;;;2.07;1.97;;;21.90;84.50;;;;;;5035165;28;20632;-68
2021/08/04 10:29:42;;;;;;;2.13;2.03;;;21.90;87.10;;;;;;5031637;28;20745;-68
2021/08/04 10:32:09;;;;;;;4.63;2.23;;;22.40;84.20;;;;;;5035533;28;20683;-68
2021/08/04 10:34:36;;;;;;;3.07;2.20;;;22.70;82.20;;;;;;5037200;28;20651;-68
2021/08/04 10:37:04;;;;;;;2.50;2.27;;;23.20;82.90;;;;;;5034865;28;20627;-69
2021/08/04 10:39:31;;;;;;;2.50;2.30;;;23.40;83.90;;;;;;5042709;28;20628;-69
2021/08/04 10:42:06;;;;;;;1.83;1.73;;;23.80;80.40;;;;;;5035110;28;20629;-69
2021/08/04 10:44:34;;;;;;;2.40;2.20;;;23.90;81.10;;;;;;5034650;28;20730;-69
2021/08/04 10:47:04;;;;;;;2.10;1.97;;;23.70;82.30;;;;;;5034401;28;20631;-69
2021/08/04 10:49:34;;;;;;;2.53;1.70;;;23.80;85.10;;;;;;5037636;28;20633;-69
2021/08/04 10:52:13;;;;;;;4.40;2.50;;;23.90;80.20;;;;;;5034694;28;20689;-69
2021/08/04 10:55:08;;;;;;;5.97;2.60;;;23.90;82.50;;;;;;5037993;28;21283;-69
2021/08/04 10:58:09;;;;;;;2.27;2.17;;;23.50;83.30;;;;;;5031911;28;20703;-69
2021/08/04 11:00:37;;;;;;;2.17;2.07;;;23.70;86.00;;;;;;5040878;28;21172;-67
2021/08/04 11:03:37;;;;;;;3.17;2.27;;;24.00;83.60;;;;;;5041143;28;20644;-67
2021/08/04 11:06:07;;;;;;;1.90;1.80;;;24.50;85.70;;;;;;5043512;28;20614;-67
2021/08/04 11:08:34;;;;;;;2.63;2.43;;;25.10;82.20;;;;;;5044027;28;20701;-67
2021/08/04 11:11:00;;;;;;;2.90;2.70;;;25.00;83.10;;;;;;5036289;28;20628;-67
2021/08/04 11:13:53;;;;;;;2.10;1.90;;;24.70;81.10;;;;;;5040808;28;20688;-67
2021/08/04 11:16:32;;;;;;;2.47;2.27;;;24.30;83.10;;;;;;5039327;28;20615;-68
2021/08/04 11:19:07;;;;;;;2.10;2.00;;;23.50;80.60;;;;;;5045831;28;21391;-68
2021/08/04 11:21:36;;;;;;;2.87;2.57;;;23.10;84.70;;;;;;5042785;28;20603;-67
2021/08/04 11:24:06;;;;;;;2.00;1.90;;;22.90;86.00;;;;;;5040558;28;21212;-67
2021/08/04 11:26:36;;;;;;;2.23;2.13;;;23.40;83.90;;;;;;5034897;28;20638;-67
2021/08/04 11:29:04;;;;;;;2.40;2.30;;;23.50;84.20;;;;;;5040532;28;20620;-67
2021/08/04 11:31:31;;;;;;;1.87;1.77;;;23.40;83.10;;;;;;5042186;28;20681;-67
2021/08/04 11:34:02;;;;;;;1.87;1.77;;;23.30;81.40;;;;;;5040853;28;20668;-67
2021/08/04 11:36:30;;;;;;;2.20;2.10;;;23.10;81.70;;;;;;5030350;28;20668;-67
2021/08/04 11:39:06;;;;;;;2.07;1.87;;;22.70;82.90;;;;;;5043178;28;20636;-67
2021/08/04 11:41:49;;;;;;;2.23;1.90;;;22.60;83.10;;;;;;5035206;28;20649;-67
2021/08/04 11:44:22;;;;;;;2.17;2.07;;;22.60;85.80;;;;;;5049256;28;20635;-67
2021/08/04 11:46:50;;;;;;;2.30;2.10;;;23.00;85.00;;;;;;5045991;28;21225;-67
2021/08/04 11:49:20;;;;;;;2.47;2.10;;;22.90;83.90;;;;;;5049284;28;20658;-67
2021/08/04 11:51:50;;;;;;;2.27;2.17;;;23.10;84.70;;;;;;5048581;28;20680;-68
2021/08/04 11:54:29;;;;;;;1.97;1.87;;;23.00;83.90;;;;;;5040041;28;20727;-67
2021/08/04 11:56:56;;;;;;;2.10;2.00;;;23.50;82.70;;;;;;5040174;28;20640;-67
2021/08/04 11:59:23;;;;;;;2.17;2.00;;;23.20;83.90;;;;;;5048603;28;20635;-67
2021/08/04 12:02:00;;;;;;;2.53;2.33;;;23.00;86.40;;;;;;5034076;28;20735;-67
2021/08/04 12:04:29;;;;;;;2.43;2.17;;;23.50;83.10;;;;;;5035725;28;20630;-67
2021/08/04 12:07:06;;;;;;;2.30;2.10;;;24.00;80.40;;;;;;5042042;28;20722;-67
2021/08/04 12:09:36;;;;;;;2.10;2.00;;;23.80;79.50;;;;;;5042422;28;20686;-67
2021/08/04 12:12:04;;;;;;;1.87;1.77;;;23.70;79.60;;;;;;5040967;28;21191;-67
2021/08/04 12:14:33;;;;;;;2.20;2.10;;;23.50;81.00;;;;;;5041222;28;20660;-67
2021/08/04 12:17:02;;;;;;;2.10;2.00;;;23.30;85.80;;;;;;5033967;28;20640;-67
2021/08/04 12:19:48;;;;;;;1.90;1.80;;;23.10;83.60;;;;;;5042575;28;20671;-67
2021/08/04 12:22:24;;;;;;;2.10;2.00;;;23.60;84.90;;;;;;5027815;28;20647;-67
2021/08/04 12:24:55;;;;;;;2.17;2.07;;;23.50;86.40;;;;;;5042497;28;20635;-68
2021/08/04 12:27:33;;;;;;;2.87;2.33;;;23.70;84.50;;;;;;5038751;28;20720;-68
2021/08/04 12:30:24;;;;;;;2.20;1.80;;;23.70;86.80;;;;;;5037461;28;20636;-68
2021/08/04 12:32:55;;;;;;;2.50;2.30;;;23.70;86.20;;;;;;5039579;28;21441;-68
2021/08/04 12:35:25;;;;;;;2.27;2.13;;;23.40;83.40;;;;;;5040029;28;20655;-68
2021/08/04 12:37:55;;;;;;;2.00;1.80;;;23.50;87.80;;;;;;5034044;28;20723;-68
2021/08/04 12:40:24;;;;;;;9.63;2.40;;;24.10;83.70;;;;;;5039222;28;21475;-68
2021/08/04 12:42:51;;;;;;;1.90;1.80;;;23.80;83.10;;;;;;5039685;28;20721;-68
2021/08/04 12:45:22;;;;;;;2.00;1.90;;;23.30;81.70;;;;;;5038253;28;20620;-67
2021/08/04 12:47:54;;;;;;;1.90;1.80;;;23.10;83.20;;;;;;5036797;28;20736;-68
2021/08/04 12:50:21;;;;;;;2.23;2.13;;;23.00;85.50;;;;;;5037048;28;20686;-68
2021/08/04 12:52:48;;;;;;;2.30;2.00;;;22.80;83.80;;;;;;5045019;28;21036;-68
2021/08/04 12:55:16;;;;;;;2.17;2.07;;;23.00;83.90;;;;;;5039399;28;21236;-68
2021/08/04 12:57:45;;;;;;;2.33;2.17;;;23.00;83.40;;;;;;5036330;28;20774;-68
2021/08/04 13:00:30;;;;;;;2.03;1.93;;;23.10;85.40;;;;;;5042990;28;20628;-68
2021/08/04 13:02:57;;;;;;;2.10;2.00;;;22.70;84.30;;;;;;5033354;28;20719;-68